Werte bis 5 Uhr SommerzeitDiagramme Beberbeck: Tagesdaten Monatsdaten WindroseCSV-Datei: Beberbeck20.csv

Wetterdaten 2020 Station: Beberbeck
Temperaturen in °C relative Nieder- Global- Wind Wind Wind- Sonnen-
Datum Boden Boden Luft Luft Luft Luft Feuchte schlag strahlung max richtung schein
20 cm 5 cm 20 cm 2 m 2 m max 2 m min % mm W/m2*d m/s m/s ° h

07.08.2020 17,5 17,7 10,1 12,7 14,5 11,1 89 0,0 0 0,4 1,7 --- ---
06.08.2020 17,0 17,4 19,6 20,3 30,2 9,5 63 0,0 6804 1,0 6,4 43 11,2
05.08.2020 16,8 16,9 17,4 17,4 27,7 6,9 68 0,0 6904 1,4 7,0 205 11,4
04.08.2020 17,1 17,1 15,0 15,0 23,0 7,4 76 0,0 6056 1,3 8,2 354 10,4
03.08.2020 17,5 17,9 16,8 16,6 22,9 10,6 75 0,0 5592 1,3 7,2 15 11,0
02.08.2020 17,4 18,0 18,7 18,6 23,5 15,3 87 32,0 3283 1,5 8,2 328 8,3
01.08.2020 17,1 17,7 21,0 21,7 31,0 11,8 68 0,0 3909 1,3 7,9 308 9,1
31.07.2020 16,7 17,0 19,9 20,2 30,2 8,2 63 0,0 6961 1,1 4,5 39 11,2
30.07.2020 16,5 16,5 16,3 16,3 26,0 6,0 68 0,0 6822 1,0 6,8 20 11,3
29.07.2020 17,0 17,1 16,1 16,0 22,2 7,1 67 0,0 6627 2,5 10,2 280 11,8
28.07.2020 17,2 17,8 19,3 19,5 25,2 13,9 65 0,0 5459 2,9 12,0 266 10,8
27.07.2020 17,1 17,4 16,9 17,1 23,3 9,0 82 1,6 3275 1,3 5,8 135 9,3
26.07.2020 17,1 17,7 19,0 18,9 23,5 13,0 74 13,7 5519 2,6 11,3 238 9,4
25.07.2020 16,9 17,4 19,5 19,1 25,7 12,8 72 0,0 4313 1,5 8,5 264 9,9
24.07.2020 16,5 16,9 18,2 18,0 25,9 9,6 68 0,0 5523 2,0 11,2 291 11,2
23.07.2020 16,3 16,6 16,9 16,8 25,2 7,6 67 0,0 7007 0,9 10,2 352 11,3
22.07.2020 16,2 16,2 14,4 14,4 22,1 4,8 72 0,0 5861 1,2 6,9 15 11,4
21.07.2020 16,6 16,6 14,2 14,1 21,6 5,7 72 0,0 6096 1,5 7,8 343 11,1
20.07.2020 17,2 17,6 16,7 16,4 21,0 8,8 82 0,0 4403 1,8 8,3 342 10,3
19.07.2020 16,9 17,5 19,2 19,0 28,4 10,0 74 0,0 4989 1,2 6,8 245 10,0
18.07.2020 16,7 17,2 17,8 17,6 26,9 7,7 74 0,0 6238 0,7 6,0 113 11,7
17.07.2020 16,3 16,7 16,1 15,6 23,5 9,6 82 0,1 5786 0,8 5,6 12 11,5
16.07.2020 16,4 16,5 14,0 13,7 17,8 11,2 93 0,5 2144 1,0 5,9 235 6,5
15.07.2020 16,5 16,8 14,9 14,5 19,2 12,1 92 0,0 2708 1,0 7,1 273 7,2
14.07.2020 16,4 16,7 16,6 16,5 26,9 6,9 73 0,1 5699 1,4 6,9 291 11,3
13.07.2020 16,1 16,4 16,3 16,2 25,7 4,6 68 0,0 7473 0,8 4,7 69 11,8
12.07.2020 16,0 16,2 14,7 14,0 22,0 5,7 75 0,0 6579 1,2 7,1 3 11,3
11.07.2020 16,1 16,1 13,6 13,1 20,7 4,7 75 0,0 5342 1,3 7,6 353 11,5
10.07.2020 16,5 16,9 16,1 15,9 20,6 10,2 88 0,7 2802 2,2 10,4 278 9,9
09.07.2020 16,2 16,6 17,5 17,3 23,3 13,3 88 3,1 2641 2,1 8,6 224 8,2
08.07.2020 16,1 16,1 14,0 13,6 16,6 11,2 93 3,9 2054 1,2 4,3 219 5,9
07.07.2020 16,1 16,0 14,0 13,5 21,0 6,2 77 0,2 5042 1,5 9,2 248 10,0
06.07.2020 16,8 16,8 14,9 14,5 19,8 9,6 70 0,5 4147 3,3 12,9 263 11,0
05.07.2020 16,9 17,5 20,8 20,6 25,6 17,0 74 0,5 2597 3,9 11,5 226 7,0
04.07.2020 16,8 17,1 18,3 17,9 24,0 11,0 71 0,0 4209 3,0 11,7 217 10,2
03.07.2020 16,8 17,2 16,6 16,0 21,9 10,4 80 0,4 6731 2,0 8,1 265 11,9
02.07.2020 16,7 17,1 17,9 17,4 23,6 13,0 81 4,0 5124 2,0 9,4 253 11,5
01.07.2020 16,4 16,8 18,0 17,8 24,4 14,8 85 21,9 2645 2,1 8,7 221 8,3
30.06.2020 16,4 16,4 17,1 16,5 23,2 8,8 60 0,0 6318 3,1 11,7 225 11,9
29.06.2020 16,9 17,0 17,2 16,6 22,5 10,8 71 0,0 5688 2,5 8,9 232 12,2
28.06.2020 17,5 18,0 18,7 18,5 22,7 11,9 76 0,0 3234 2,2 10,1 244 9,7
27.06.2020 17,4 18,0 21,3 20,9 28,6 11,7 74 0,0 6020 2,0 9,5 213 11,2
26.06.2020 17,1 17,8 20,5 20,4 28,1 10,6 69 0,0 7384 1,8 8,9 88 11,9
25.06.2020 16,9 17,6 19,1 19,4 25,4 10,6 74 0,0 6425 1,8 8,4 64 12,0
24.06.2020 16,6 17,1 18,1 18,3 25,9 8,4 70 0,0 7570 1,3 6,6 59 12,7
23.06.2020 16,4 16,9 17,6 17,6 25,6 7,8 71 0,0 7715 1,0 5,6 348 12,1
22.06.2020 16,6 17,2 17,2 17,0 23,1 10,4 81 0,0 4750 1,3 7,7 329 9,8
21.06.2020 16,3 16,8 17,5 17,4 25,6 7,3 74 0,0 6981 0,8 6,1 290 12,1
20.06.2020 16,5 17,0 16,6 16,4 22,3 10,3 78 0,0 6116 1,9 8,8 303 13,5
19.06.2020 16,2 16,8 17,8 17,3 23,6 10,7 79 0,1 6828 1,8 7,6 303 12,5
18.06.2020 16,4 16,9 15,7 15,4 17,6 12,7 97 5,4 1796 1,0 7,2 260 6,3
17.06.2020 16,2 16,9 17,3 17,0 26,4 10,1 89 2,4 4506 1,0 11,4 16 10,5
16.06.2020 16,1 16,7 17,0 16,4 21,4 12,2 89 0,0 4604 1,1 6,5 301 10,8
15.06.2020 16,4 16,9 15,7 15,6 17,7 14,0 97 27,4 1451 1,5 5,6 298 5,0
14.06.2020 16,4 17,2 18,7 18,4 22,5 15,0 95 2,2 2623 1,2 5,8 342 9,9
13.06.2020 15,4 16,6 20,7 20,6 29,7 15,8 80 34,5 5428 1,7 13,5 9 8,8
12.06.2020 14,4 15,6 18,4 18,2 25,9 8,4 76 0,0 7108 2,2 8,7 79 12,3
11.06.2020 14,0 14,9 15,5 14,9 21,1 11,1 88 0,5 3614 0,9 3,9 23 8,8
10.06.2020 13,5 14,3 15,0 14,6 19,6 11,1 86 0,0 3744 1,4 5,5 3 9,9
09.06.2020 13,0 13,3 13,2 12,9 19,5 4,8 85 0,1 3755 1,1 7,4 8 11,0
08.06.2020 12,9 13,2 12,4 12,0 19,1 4,0 84 0,0 4106 0,9 7,0 267 9,3
07.06.2020 12,8 13,0 13,2 12,7 18,0 6,4 72 0,0 5797 2,2 9,4 243 11,8
06.06.2020 12,7 12,7 10,9 10,4 16,6 4,2 82 0,0 5676 2,8 14,7 209 11,4
05.06.2020 13,4 13,5 10,3 9,9 14,2 6,6 86 0,9 3661 3,2 13,6 230 8,5
04.06.2020 14,0 14,5 12,8 12,9 15,4 8,4 94 10,0 1412 1,2 6,6 266 3,8
03.06.2020 13,9 14,9 17,6 17,4 26,7 8,4 68 0,0 5567 1,1 8,2 274 10,3
02.06.2020 13,3 14,3 18,0 18,0 27,3 6,9 59 0,0 7445 1,2 6,7 29 11,9
01.06.2020 12,8 13,5 15,6 15,1 23,7 3,4 64 0,0 7933 1,8 7,8 26 11,9
31.05.2020 12,6 13,2 13,0 12,5 19,9 4,5 68 0,0 6121 2,1 8,4 31 11,7
30.05.2020 12,5 12,9 12,9 12,5 19,1 3,7 63 0,0 6553 2,1 10,7 41 12,0
29.05.2020 12,6 12,9 12,8 12,1 20,4 2,3 64 0,0 7780 1,6 9,7 50 11,3
28.05.2020 12,8 13,6 13,8 12,9 18,4 5,3 67 0,0 7342 2,6 9,3 352 11,6
27.05.2020 12,3 12,9 14,6 14,3 22,6 3,5 71 0,0 6078 1,4 9,5 333 11,9
26.05.2020 12,2 12,5 12,0 11,4 20,9 1,9 77 0,0 5914 1,0 4,4 34 11,7
25.05.2020 12,1 12,8 13,2 12,8 17,4 6,3 79 0,0 6030 3,2 11,6 318 11,9
24.05.2020 12,2 12,3 10,6 10,5 15,0 5,9 87 3,2 2695 2,5 9,8 244 7,0
23.05.2020 12,7 13,5 13,4 13,3 16,7 8,0 80 0,7 3582 2,4 14,0 235 10,6
22.05.2020 12,3 13,1 16,2 16,3 22,4 7,4 79 9,7 2896 1,6 5,8 206 10,8
21.05.2020 11,8 12,5 15,6 15,3 25,4 3,9 66 0,0 7352 1,0 10,6 39 11,5
20.05.2020 11,9 12,7 13,9 13,5 17,0 7,3 86 0,2 2303 1,1 4,7 17 7,1
19.05.2020 11,3 12,0 14,0 13,8 21,7 4,0 73 0,0 5800 1,6 9,5 308 11,0
18.05.2020 10,7 11,3 13,3 13,1 22,3 1,9 69 0,0 6758 1,7 8,3 266 11,8
17.05.2020 10,4 11,0 11,2 10,6 17,7 2,3 69 0,0 7349 1,6 7,0 303 10,8
16.05.2020 9,8 10,1 10,3 9,7 17,2 -0,6 69 0,0 5867 1,3 6,7 288 12,7
15.05.2020 9,4 9,2 7,7 6,9 14,2 -2,2 70 0,0 6494 1,9 10,2 342 11,4
14.05.2020 9,6 9,7 7,6 7,0 12,8 0,1 73 0,0 4311 2,2 8,4 356 11,2
13.05.2020 9,3 8,9 6,9 6,4 14,1 -2,0 73 0,0 4396 1,4 8,6 319 9,6
12.05.2020 9,6 8,9 4,4 4,1 10,7 -2,9 76 0,0 3884 1,6 6,7 265 11,9
11.05.2020 10,8 10,5 5,3 5,1 10,0 0,1 81 2,1 2121 3,9 12,0 10 6,4
10.05.2020 11,2 11,6 12,2 12,0 19,4 4,5 84 0,6 2198 1,0 12,1 5 8,7
09.05.2020 11,2 12,0 14,7 14,4 21,9 6,3 61 0,0 5732 1,7 7,9 60 11,5
08.05.2020 10,5 11,2 12,4 12,0 21,0 2,6 64 0,0 6428 1,1 5,8 348 11,2
07.05.2020 10,0 10,3 10,2 9,7 20,6 -0,7 62 0,0 7119 1,1 6,4 305 11,3
06.05.2020 9,7 9,8 8,3 7,6 16,7 -2,4 70 0,0 6912 1,3 7,2 353 11,3
05.05.2020 9,8 9,8 6,6 5,9 12,7 -1,7 73 0,1 6874 1,9 9,8 356 11,9
04.05.2020 10,2 10,5 9,0 8,7 13,0 3,5 88 2,0 2927 1,8 7,2 12 7,8
03.05.2020 9,9 10,1 9,6 9,3 14,9 4,4 86 0,8 3441 1,6 7,1 238 8,6
02.05.2020 10,0 10,0 7,8 7,6 11,0 4,7 91 5,0 2871 2,4 13,5 241 6,4
01.05.2020 10,3 10,5 9,6 9,1 13,3 4,9 86 4,7 4396 3,4 11,5 208 9,7
30.04.2020 10,4 10,9 11,6 11,4 15,4 6,9 81 12,7 3630 4,3 13,0 206 8,6
29.04.2020 10,3 11,0 12,3 12,0 16,6 7,9 85 1,7 3139 1,9 9,3 238 9,7
28.04.2020 10,0 10,2 10,9 10,9 17,1 2,2 81 1,6 2490 1,4 7,3 209 8,5
27.04.2020 9,9 10,3 11,5 11,3 21,6 -0,4 65 0,0 5284 1,2 9,0 235 10,6
26.04.2020 9,8 10,0 9,3 8,9 19,4 -1,7 68 0,0 6533 1,0 6,4 14 11,1
25.04.2020 10,0 10,6 9,4 8,7 15,6 1,1 67 0,0 5556 2,4 8,7 347 10,5
24.04.2020 9,8 10,2 12,0 11,8 19,9 2,4 61 0,0 6105 2,3 10,5 307 11,1
23.04.2020 9,5 10,1 12,6 12,3 20,5 2,7 52 0,0 6740 2,3 8,6 78 10,9
22.04.2020 9,3 9,8 13,8 13,2 19,0 6,6 40 0,0 6838 4,1 15,1 81 11,1
21.04.2020 9,2 9,4 12,4 11,6 17,0 5,4 43 0,0 6723 4,5 15,8 53 11,1
20.04.2020 9,4 9,4 9,8 9,2 15,7 0,5 47 0,0 6722 4,2 15,8 70 11,1
19.04.2020 9,9 10,8 11,7 10,7 15,7 5,0 64 4,6 6539 3,0 10,6 67 10,9
18.04.2020 9,3 10,0 13,0 12,7 23,1 3,1 72 1,4 4722 1,5 8,5 53 8,9
17.04.2020 8,9 9,5 11,3 11,1 21,1 1,2 67 0,0 6012 1,2 5,6 10 10,8
16.04.2020 8,2 8,7 11,1 11,4 23,1 -0,2 61 0,0 6048 1,0 6,1 249 10,8
15.04.2020 7,6 7,6 6,5 6,2 17,3 -2,9 71 0,0 5903 1,1 7,3 262 11,1
14.04.2020 7,9 7,6 4,6 4,2 9,0 -2,0 64 0,0 3567 2,6 8,2 319 9,4
13.04.2020 8,8 8,8 6,4 6,1 8,7 2,0 64 0,0 3622 4,2 12,9 355 9,1
12.04.2020 8,7 9,3 11,4 11,7 22,2 1,0 60 0,0 5615 1,3 6,5 308 9,9
11.04.2020 8,5 8,7 9,2 9,1 19,0 -2,4 56 0,0 5938 1,2 5,8 77 10,6
10.04.2020 8,8 9,3 8,8 8,5 17,3 0,5 69 0,0 5377 1,5 7,6 15 9,7
09.04.2020 8,7 9,4 10,8 10,8 19,2 2,5 68 0,0 5406 1,6 7,6 2 10,1
08.04.2020 8,4 9,3 12,9 13,1 23,4 2,8 63 0,0 5643 1,1 7,0 270 10,1
07.04.2020 7,6 8,5 11,9 12,1 20,6 2,5 68 0,0 4866 1,3 6,9 34 9,5
06.04.2020 6,9 7,5 11,9 12,4 21,5 1,0 50 0,0 5819 2,7 9,0 205 10,1
05.04.2020 6,3 6,8 11,2 10,9 17,7 3,4 48 0,0 5755 3,3 11,6 139 10,1
04.04.2020 5,6 6,1 7,6 7,0 13,7 -2,2 63 0,0 5704 1,7 9,1 337 10,1
03.04.2020 5,3 5,4 6,5 6,3 9,2 2,7 71 0,1 1965 2,5 7,3 249 5,3
02.04.2020 4,7 4,5 3,8 3,2 10,0 -4,9 73 0,0 4600 2,4 10,8 278 10,0
01.04.2020 4,5 4,1 2,0 1,5 9,7 -7,0 68 0,0 5605 1,2 6,6 313 10,3
31.03.2020 4,6 4,2 1,8 1,4 7,5 -4,1 73 0,1 3651 1,4 6,5 39 9,8
30.03.2020 4,8 3,9 -0,4 -0,8 4,2 -8,1 80 0,2 2799 1,5 8,2 306 7,7
29.03.2020 5,8 5,6 2,4 2,3 5,6 -2,1 77 0,5 2001 4,3 12,4 359 6,1
28.03.2020 5,6 5,9 7,0 6,7 13,9 -1,3 65 0,0 5116 3,0 10,1 15 9,3
27.03.2020 4,9 5,1 8,6 8,3 16,9 -1,3 53 0,0 4822 3,6 11,4 62 9,3
26.03.2020 4,6 4,2 4,1 3,6 9,2 -4,6 52 0,0 5084 3,9 13,4 69 9,4
25.03.2020 4,7 4,3 3,7 3,2 9,6 -3,8 40 0,0 5273 3,4 10,9 93 9,4
24.03.2020 4,8 4,3 2,9 2,5 8,3 -2,6 42 0,0 5241 3,3 10,2 121 9,4
23.03.2020 5,2 4,5 1,7 1,2 6,4 -4,1 47 0,0 5179 3,3 11,0 112 9,4
22.03.2020 6,0 5,4 2,3 1,6 5,5 -1,7 57 0,0 5207 4,1 14,8 93 9,4
21.03.2020 6,9 6,7 4,0 3,5 6,2 0,5 72 0,1 3201 4,4 13,2 56 8,2
20.03.2020 7,6 7,8 6,5 6,6 9,3 3,8 91 0,8 648 2,9 10,6 34 0,6
19.03.2020 7,3 7,7 9,0 9,0 16,6 1,0 82 0,0 2750 0,9 5,3 50 7,1
18.03.2020 7,0 7,3 8,0 7,9 17,1 -0,1 77 0,0 4584 1,8 8,3 226 9,1
17.03.2020 6,8 7,4 8,8 8,6 14,8 3,3 77 0,2 4273 1,5 6,8 307 8,2
16.03.2020 6,1 6,3 7,7 8,3 16,9 -0,6 73 0,0 3740 1,3 4,9 189 8,5
15.03.2020 6,0 6,0 7,3 7,5 12,4 3,6 67 2,1 4003 4,3 13,2 193 9,1
14.03.2020 5,8 5,8 5,0 4,7 10,4 -0,6 80 0,1 3916 2,0 7,6 177 9,2
13.03.2020 6,2 6,0 5,1 5,2 9,4 1,5 77 1,0 2048 5,0 18,9 236 5,3
12.03.2020 6,7 7,3 9,1 9,2 12,3 2,9 69 4,3 3265 6,5 19,7 241 7,0
11.03.2020 6,0 6,6 8,9 9,1 11,4 6,6 94 2,0 948 2,9 12,8 229 3,2
10.03.2020 5,3 5,3 6,0 6,4 11,9 3,6 94 9,5 537 5,0 12,8 204 0,1
09.03.2020 5,3 5,6 6,1 6,3 9,7 1,5 85 0,8 2193 2,6 10,3 228 6,5
08.03.2020 4,6 4,5 6,1 6,1 9,9 0,6 80 0,0 1930 4,5 10,8 196 6,7
07.03.2020 4,6 4,4 3,1 3,5 6,2 0,2 87 1,7 1270 2,8 9,6 282 4,2
06.03.2020 4,7 4,7 3,7 3,9 6,0 1,9 98 17,1 631 3,1 9,3 235 1,3
05.03.2020 4,3 4,0 3,7 4,0 7,6 0,4 88 3,4 1465 2,7 8,3 147 5,9
04.03.2020 4,6 4,0 0,8 1,3 6,6 -2,0 95 2,0 1201 1,8 8,8 213 3,7
03.03.2020 5,3 5,3 3,5 3,6 6,8 -2,0 88 4,4 1602 2,0 10,5 275 6,2
02.03.2020 5,0 5,1 5,7 5,5 10,3 1,2 84 4,4 3064 2,9 10,5 187 7,6
01.03.2020 4,8 4,7 5,4 5,7 9,3 3,2 74 0,3 1786 4,7 14,9 208 5,5
29.02.2020 4,4 4,5 6,0 6,2 12,2 0,5 88 5,6 2067 6,1 16,5 200 6,0
28.02.2020 4,3 3,9 2,6 2,4 5,5 0,1 87 3,5 2020 4,2 14,1 237 6,3
27.02.2020 4,5 4,1 1,8 1,8 3,7 0,3 91 1,1 1215 2,7 8,7 208 4,7
26.02.2020 5,1 4,7 1,7 1,9 2,8 0,5 94 2,1 466 3,5 9,9 237 0,2
25.02.2020 5,5 5,7 7,0 7,2 9,0 1,3 76 3,0 1904 4,7 14,5 242 5,9
24.02.2020 5,4 5,2 4,5 4,7 8,4 2,6 88 3,4 737 4,4 14,0 219 1,6
23.02.2020 5,2 5,8 7,2 7,9 12,2 4,5 89 19,6 354 5,8 23,0 245 ---
22.02.2020 4,7 4,6 6,3 6,6 10,1 2,5 75 2,9 1097 6,0 14,4 217 3,3
21.02.2020 4,7 4,6 4,6 4,7 7,4 1,2 78 5,1 1545 5,4 15,4 248 5,1
20.02.2020 4,6 4,3 4,6 4,9 7,9 1,3 87 0,9 1045 4,9 13,9 201 3,7
19.02.2020 4,9 4,6 3,7 4,0 6,2 1,0 83 3,7 1052 4,6 16,4 239 3,0
18.02.2020 5,3 5,1 4,9 5,1 7,2 3,6 83 1,0 1478 5,1 16,3 221 4,6
17.02.2020 5,6 5,8 6,8 7,2 9,5 4,3 77 2,7 1273 4,8 12,6 221 4,4
16.02.2020 4,8 5,4 10,5 11,0 14,6 7,7 70 0,0 963 7,3 19,3 201 3,0
15.02.2020 4,0 4,1 5,8 6,0 9,5 2,1 85 0,0 2347 4,8 13,6 194 7,0
14.02.2020 3,6 3,6 4,1 4,5 5,6 2,5 93 2,5 553 2,2 8,1 234 0,6
13.02.2020 3,4 2,8 1,4 1,9 3,5 -0,1 93 2,8 394 4,3 13,8 192 ---
12.02.2020 3,8 3,1 2,3 2,7 5,3 0,7 76 0,1 1276 5,3 18,4 242 4,6
11.02.2020 4,5 3,9 2,6 3,0 5,1 0,9 78 2,7 1221 6,9 21,2 254 3,4
10.02.2020 5,0 5,3 5,7 6,3 11,9 2,7 83 17,1 1124 7,9 22,9 242 3,6
09.02.2020 4,1 4,1 7,0 7,4 11,3 3,8 77 0,0 949 7,7 20,7 199 3,1
08.02.2020 4,0 3,3 2,1 2,4 5,7 -1,6 84 0,2 1289 3,6 9,8 197 4,4
07.02.2020 4,3 4,1 3,0 3,0 7,0 -0,6 86 0,0 1730 2,0 8,4 160 5,1
06.02.2020 4,4 3,8 2,0 2,2 4,3 -0,3 92 0,0 339 1,6 5,8 237 ---
05.02.2020 5,0 4,5 1,6 1,6 4,9 -2,4 85 0,1 2109 2,6 12,4 306 6,1
04.02.2020 5,7 5,5 3,1 3,3 5,8 1,1 93 8,6 650 3,3 11,6 290 1,4
03.02.2020 5,8 6,2 8,2 8,6 10,1 5,7 83 2,6 859 4,4 14,8 262 3,1
02.02.2020 5,7 5,9 6,8 7,2 10,3 4,9 86 5,9 371 4,3 17,0 238 ---
01.02.2020 5,5 6,4 9,0 9,5 10,7 6,5 89 15,3 227 4,4 14,1 224 ---
31.01.2020 4,4 5,2 10,1 10,4 12,5 7,0 83 1,2 1085 4,5 16,0 233 4,1
30.01.2020 3,4 3,4 4,6 5,0 7,8 1,9 87 0,8 798 5,1 11,6 206 2,5
29.01.2020 3,4 3,0 2,6 3,0 4,3 1,7 84 1,1 371 4,0 12,8 231 0,5
28.01.2020 3,6 3,6 3,6 4,0 5,5 2,0 88 1,4 475 5,6 18,8 217 0,9
27.01.2020 2,9 3,0 4,2 4,5 6,7 2,0 97 4,2 257 4,2 10,4 198 ---
26.01.2020 2,4 1,9 0,5 0,4 2,2 -0,9 100 0,0 635 3,2 8,6 193 1,0
25.01.2020 2,5 1,7 -1,4 -1,6 -0,6 -2,5 99 0,0 330 2,4 7,2 201 ---
24.01.2020 2,8 1,9 -1,6 -1,5 -0,5 -3,8 98 0,0 397 2,9 8,1 202 ---
23.01.2020 2,9 2,5 0,4 0,5 2,6 -2,7 96 0,1 572 0,8 4,9 172 0,3
22.01.2020 2,9 1,9 -1,7 -1,5 0,8 -5,5 100 0,2 283 0,9 3,1 204 ---
21.01.2020 3,7 2,6 -2,9 -2,2 4,2 -5,7 97 0,1 1902 0,6 3,3 227 6,3
20.01.2020 4,4 4,0 0,8 1,1 6,5 -3,0 97 0,1 809 0,5 2,3 213 2,8
19.01.2020 4,5 4,3 1,9 2,0 3,6 0,6 99 2,3 421 1,6 4,8 296 0,5
18.01.2020 4,9 4,5 2,8 3,2 5,6 0,7 90 2,1 728 3,0 11,2 226 2,6
17.01.2020 4,9 4,7 5,3 6,1 8,5 1,8 88 1,1 1125 3,2 10,2 194 3,9
16.01.2020 5,3 5,2 4,3 5,3 9,9 -1,1 93 0,2 1024 1,5 6,7 208 4,0
15.01.2020 5,2 5,4 9,1 9,4 11,4 7,7 73 0,0 1351 5,9 13,1 203 5,1
14.01.2020 4,6 4,7 6,9 7,4 9,3 4,7 80 0,0 516 6,4 15,8 196 0,4
13.01.2020 4,3 4,2 4,4 4,6 6,6 2,9 96 1,7 828 3,7 10,6 195 2,6
12.01.2020 4,3 3,5 1,7 2,1 4,3 0,0 93 0,0 433 4,8 11,2 202 0,9
11.01.2020 5,2 4,9 2,9 3,2 5,3 1,4 89 0,0 967 3,4 9,9 230 2,6
10.01.2020 5,5 6,2 6,8 7,2 9,6 3,8 94 5,8 360 4,1 10,9 233 0,5
09.01.2020 4,5 5,4 7,9 8,3 10,2 6,0 99 16,9 148 4,5 12,2 196 ---
08.01.2020 3,6 3,6 4,5 4,7 6,0 3,7 97 1,8 118 4,8 11,1 200 ---
07.01.2020 3,3 2,8 1,9 2,2 4,7 -0,5 98 0,3 258 3,4 8,6 201 ---
06.01.2020 3,5 3,2 2,3 2,7 4,0 -0,1 91 0,0 316 3,1 9,6 207 ---
05.01.2020 3,4 3,0 1,0 1,4 3,5 -1,8 99 0,3 299 1,6 5,1 221 ---
04.01.2020 3,4 3,3 3,4 4,0 5,2 1,7 93 4,4 76 4,0 13,7 279 ---
03.01.2020 2,6 2,2 3,1 3,5 6,7 1,0 99 5,9 186 4,8 14,2 207 ---
02.01.2020 2,6 1,6 -1,6 -1,3 1,2 -4,9 97 0,0 442 3,3 10,2 190 0,7
01.01.2020 3,1 2,1 -2,0 -1,3 2,9 -4,9 95 0,1 1375 1,4 6,6 187 5,4

Mittelwerte (Temperaturen, Strahlung, rel. Feuchte, Wind), Summe (Regen) für 2020
9,6 9,8 9,8 9,7 78 438 3.657 2,6

Landesbetrieb Landwirtschaft Hessen 2009

      Werte bis 5 Uhr SommerzeitCSV-Datei: Beberbeck20.csvDiagramm: Beberbeck